sensor_id;sensor_type;location;lat;lon;timestamp;P1;durP1;ratioP1;P2;durP2;ratioP2
10154;SDS011;5118;48.570;7.916;2023-04-24T00:01:53;1.90;;;1.80;;
10154;SDS011;5118;48.570;7.916;2023-04-24T00:04:22;1.80;;;1.67;;
10154;SDS011;5118;48.570;7.916;2023-04-24T00:06:52;1.90;;;1.67;;
10154;SDS011;5118;48.570;7.916;2023-04-24T00:09:24;2.40;;;1.90;;
10154;SDS011;5118;48.570;7.916;2023-04-24T00:11:52;2.27;;;1.80;;
10154;SDS011;5118;48.570;7.916;2023-04-24T00:14:22;3.77;;;1.57;;
10154;SDS011;5118;48.570;7.916;2023-04-24T00:16:51;1.70;;;1.60;;
10154;SDS011;5118;48.570;7.916;2023-04-24T00:19:19;2.63;;;1.70;;
10154;SDS011;5118;48.570;7.916;2023-04-24T00:21:49;2.50;;;1.60;;
10154;SDS011;5118;48.570;7.916;2023-04-24T00:24:18;2.43;;;1.70;;
10154;SDS011;5118;48.570;7.916;2023-04-24T00:26:47;1.97;;;1.87;;
10154;SDS011;5118;48.570;7.916;2023-04-24T00:29:16;1.83;;;1.60;;
10154;SDS011;5118;48.570;7.916;2023-04-24T00:31:47;4.10;;;1.90;;
10154;SDS011;5118;48.570;7.916;2023-04-24T00:34:18;1.93;;;1.70;;
10154;SDS011;5118;48.570;7.916;2023-04-24T00:36:47;1.80;;;1.70;;
10154;SDS011;5118;48.570;7.916;2023-04-24T00:39:18;2.83;;;1.63;;
10154;SDS011;5118;48.570;7.916;2023-04-24T00:41:47;3.77;;;1.80;;
10154;SDS011;5118;48.570;7.916;2023-04-24T00:44:17;2.23;;;1.67;;
10154;SDS011;5118;48.570;7.916;2023-04-24T00:46:47;2.40;;;1.60;;
10154;SDS011;5118;48.570;7.916;2023-04-24T00:49:18;1.60;;;1.50;;
10154;SDS011;5118;48.570;7.916;2023-04-24T00:51:47;2.10;;;1.57;;
10154;SDS011;5118;48.570;7.916;2023-04-24T00:54:15;2.00;;;1.80;;
10154;SDS011;5118;48.570;7.916;2023-04-24T00:56:44;3.03;;;1.60;;
10154;SDS011;5118;48.570;7.916;2023-04-24T00:59:14;3.20;;;1.60;;
10154;SDS011;5118;48.570;7.916;2023-04-24T01:01:44;2.10;;;1.90;;
10154;SDS011;5118;48.570;7.916;2023-04-24T01:04:15;2.47;;;1.70;;
10154;SDS011;5118;48.570;7.916;2023-04-24T01:06:48;1.93;;;1.70;;
10154;SDS011;5118;48.570;7.916;2023-04-24T01:09:19;1.90;;;1.73;;
10154;SDS011;5118;48.570;7.916;2023-04-24T01:11:51;1.80;;;1.70;;
10154;SDS011;5118;48.570;7.916;2023-04-24T01:14:20;2.10;;;1.70;;
10154;SDS011;5118;48.570;7.916;2023-04-24T01:16:50;2.90;;;1.80;;
10154;SDS011;5118;48.570;7.916;2023-04-24T01:19:19;2.30;;;1.70;;
10154;SDS011;5118;48.570;7.916;2023-04-24T01:21:48;2.10;;;1.90;;
10154;SDS011;5118;48.570;7.916;2023-04-24T01:24:21;1.80;;;1.70;;
10154;SDS011;5118;48.570;7.916;2023-04-24T01:26:49;2.53;;;1.90;;
10154;SDS011;5118;48.570;7.916;2023-04-24T01:29:18;2.07;;;1.90;;
10154;SDS011;5118;48.570;7.916;2023-04-24T01:31:46;2.20;;;1.83;;
10154;SDS011;5118;48.570;7.916;2023-04-24T01:34:15;2.70;;;2.30;;
10154;SDS011;5118;48.570;7.916;2023-04-24T01:36:44;2.87;;;2.00;;
10154;SDS011;5118;48.570;7.916;2023-04-24T01:39:13;2.50;;;1.80;;
10154;SDS011;5118;48.570;7.916;2023-04-24T01:41:44;2.40;;;1.77;;
10154;SDS011;5118;48.570;7.916;2023-04-24T01:44:13;1.83;;;1.70;;
10154;SDS011;5118;48.570;7.916;2023-04-24T01:46:41;3.03;;;1.83;;
10154;SDS011;5118;48.570;7.916;2023-04-24T01:49:10;2.93;;;2.07;;
10154;SDS011;5118;48.570;7.916;2023-04-24T01:51:38;3.27;;;2.00;;
10154;SDS011;5118;48.570;7.916;2023-04-24T01:54:07;2.00;;;1.90;;
10154;SDS011;5118;48.570;7.916;2023-04-24T01:56:35;2.50;;;2.00;;
10154;SDS011;5118;48.570;7.916;2023-04-24T01:59:10;2.40;;;2.17;;
10154;SDS011;5118;48.570;7.916;2023-04-24T02:01:39;2.60;;;1.70;;
10154;SDS011;5118;48.570;7.916;2023-04-24T02:04:08;1.80;;;1.57;;
10154;SDS011;5118;48.570;7.916;2023-04-24T02:06:36;1.90;;;1.70;;
10154;SDS011;5118;48.570;7.916;2023-04-24T02:09:04;1.93;;;1.73;;
10154;SDS011;5118;48.570;7.916;2023-04-24T02:11:34;2.60;;;1.90;;
10154;SDS011;5118;48.570;7.916;2023-04-24T02:14:02;2.37;;;1.67;;
10154;SDS011;5118;48.570;7.916;2023-04-24T02:16:32;2.33;;;1.80;;
10154;SDS011;5118;48.570;7.916;2023-04-24T02:19:02;2.17;;;1.77;;
10154;SDS011;5118;48.570;7.916;2023-04-24T02:21:31;2.00;;;1.80;;
10154;SDS011;5118;48.570;7.916;2023-04-24T02:24:00;2.77;;;1.73;;
10154;SDS011;5118;48.570;7.916;2023-04-24T02:26:28;2.83;;;1.60;;
10154;SDS011;5118;48.570;7.916;2023-04-24T02:28:58;2.60;;;1.63;;
10154;SDS011;5118;48.570;7.916;2023-04-24T02:31:26;2.50;;;1.53;;
10154;SDS011;5118;48.570;7.916;2023-04-24T02:33:56;1.60;;;1.50;;
10154;SDS011;5118;48.570;7.916;2023-04-24T02:36:24;1.50;;;1.40;;
10154;SDS011;5118;48.570;7.916;2023-04-24T02:38:53;1.60;;;1.50;;
10154;SDS011;5118;48.570;7.916;2023-04-24T02:41:21;2.20;;;1.43;;
10154;SDS011;5118;48.570;7.916;2023-04-24T02:43:49;2.33;;;1.50;;
10154;SDS011;5118;48.570;7.916;2023-04-24T02:46:18;2.20;;;1.33;;
10154;SDS011;5118;48.570;7.916;2023-04-24T02:48:46;2.43;;;1.50;;
10154;SDS011;5118;48.570;7.916;2023-04-24T02:51:16;1.93;;;1.60;;
10154;SDS011;5118;48.570;7.916;2023-04-24T02:53:45;2.60;;;1.60;;
10154;SDS011;5118;48.570;7.916;2023-04-24T02:56:13;2.20;;;1.70;;
10154;SDS011;5118;48.570;7.916;2023-04-24T02:58:41;4.43;;;1.60;;
10154;SDS011;5118;48.570;7.916;2023-04-24T03:01:10;3.43;;;1.70;;
10154;SDS011;5118;48.570;7.916;2023-04-24T03:03:38;2.67;;;1.80;;
10154;SDS011;5118;48.570;7.916;2023-04-24T03:06:07;2.77;;;1.70;;
10154;SDS011;5118;48.570;7.916;2023-04-24T03:08:37;2.37;;;1.77;;
10154;SDS011;5118;48.570;7.916;2023-04-24T03:11:05;3.20;;;1.90;;
10154;SDS011;5118;48.570;7.916;2023-04-24T03:13:34;3.23;;;1.70;;
10154;SDS011;5118;48.570;7.916;2023-04-24T03:16:02;7.33;;;2.07;;
10154;SDS011;5118;48.570;7.916;2023-04-24T03:18:31;20.97;;;2.57;;
10154;SDS011;5118;48.570;7.916;2023-04-24T03:21:00;5.17;;;2.60;;
10154;SDS011;5118;48.570;7.916;2023-04-24T03:23:30;4.03;;;2.93;;
10154;SDS011;5118;48.570;7.916;2023-04-24T03:26:00;4.20;;;3.20;;
10154;SDS011;5118;48.570;7.916;2023-04-24T03:28:30;7.00;;;3.30;;
10154;SDS011;5118;48.570;7.916;2023-04-24T03:31:02;5.20;;;3.33;;
10154;SDS011;5118;48.570;7.916;2023-04-24T03:33:34;5.83;;;3.30;;
10154;SDS011;5118;48.570;7.916;2023-04-24T03:36:03;4.97;;;3.40;;
10154;SDS011;5118;48.570;7.916;2023-04-24T03:38:38;3.67;;;3.23;;
10154;SDS011;5118;48.570;7.916;2023-04-24T03:41:27;5.53;;;3.17;;
10154;SDS011;5118;48.570;7.916;2023-04-24T03:44:15;4.43;;;2.97;;
10154;SDS011;5118;48.570;7.916;2023-04-24T03:46:44;4.57;;;3.17;;
10154;SDS011;5118;48.570;7.916;2023-04-24T03:49:12;3.80;;;3.37;;
10154;SDS011;5118;48.570;7.916;2023-04-24T03:51:43;6.77;;;3.60;;
10154;SDS011;5118;48.570;7.916;2023-04-24T03:54:21;3.70;;;3.40;;
10154;SDS011;5118;48.570;7.916;2023-04-24T03:56:53;6.67;;;3.80;;
10154;SDS011;5118;48.570;7.916;2023-04-24T03:59:22;7.17;;;5.33;;
10154;SDS011;5118;48.570;7.916;2023-04-24T04:02:14;8.67;;;6.03;;
10154;SDS011;5118;48.570;7.916;2023-04-24T04:04:43;5.50;;;5.00;;
10154;SDS011;5118;48.570;7.916;2023-04-24T04:07:12;7.27;;;5.03;;
10154;SDS011;5118;48.570;7.916;2023-04-24T04:09:41;5.57;;;3.80;;
10154;SDS011;5118;48.570;7.916;2023-04-24T04:12:11;6.80;;;4.57;;
10154;SDS011;5118;48.570;7.916;2023-04-24T04:14:40;6.93;;;4.83;;
10154;SDS011;5118;48.570;7.916;2023-04-24T04:17:08;7.47;;;4.67;;
10154;SDS011;5118;48.570;7.916;2023-04-24T04:19:37;5.90;;;4.13;;
10154;SDS011;5118;48.570;7.916;2023-04-24T04:22:05;7.47;;;4.77;;
10154;SDS011;5118;48.570;7.916;2023-04-24T04:24:40;5.17;;;3.90;;
10154;SDS011;5118;48.570;7.916;2023-04-24T04:27:11;6.97;;;4.70;;
10154;SDS011;5118;48.570;7.916;2023-04-24T04:30:01;7.30;;;5.53;;
10154;SDS011;5118;48.570;7.916;2023-04-24T04:32:38;6.33;;;5.27;;
10154;SDS011;5118;48.570;7.916;2023-04-24T04:35:07;5.80;;;5.30;;
10154;SDS011;5118;48.570;7.916;2023-04-24T04:37:36;4.70;;;4.30;;
10154;SDS011;5118;48.570;7.916;2023-04-24T04:40:11;5.47;;;4.37;;
10154;SDS011;5118;48.570;7.916;2023-04-24T04:42:50;5.70;;;4.70;;
10154;SDS011;5118;48.570;7.916;2023-04-24T04:45:20;7.53;;;6.53;;
10154;SDS011;5118;48.570;7.916;2023-04-24T04:48:17;6.90;;;5.87;;
10154;SDS011;5118;48.570;7.916;2023-04-24T04:50:45;24.00;;;18.53;;
10154;SDS011;5118;48.570;7.916;2023-04-24T04:53:15;6.70;;;5.80;;
10154;SDS011;5118;48.570;7.916;2023-04-24T04:55:44;6.23;;;5.17;;
10154;SDS011;5118;48.570;7.916;2023-04-24T04:58:16;5.97;;;5.37;;
10154;SDS011;5118;48.570;7.916;2023-04-24T05:00:45;5.83;;;5.20;;
10154;SDS011;5118;48.570;7.916;2023-04-24T05:03:20;6.53;;;5.97;;
10154;SDS011;5118;48.570;7.916;2023-04-24T05:05:55;6.17;;;4.70;;
10154;SDS011;5118;48.570;7.916;2023-04-24T05:08:25;4.93;;;4.20;;
10154;SDS011;5118;48.570;7.916;2023-04-24T05:10:54;5.03;;;4.53;;
10154;SDS011;5118;48.570;7.916;2023-04-24T05:13:27;6.03;;;4.73;;
10154;SDS011;5118;48.570;7.916;2023-04-24T05:16:17;5.30;;;4.80;;
10154;SDS011;5118;48.570;7.916;2023-04-24T05:18:47;5.87;;;4.90;;
10154;SDS011;5118;48.570;7.916;2023-04-24T05:21:20;5.43;;;4.67;;
10154;SDS011;5118;48.570;7.916;2023-04-24T05:23:51;4.57;;;4.13;;
10154;SDS011;5118;48.570;7.916;2023-04-24T05:26:39;4.23;;;3.90;;
10154;SDS011;5118;48.570;7.916;2023-04-24T05:29:15;4.40;;;4.00;;
10154;SDS011;5118;48.570;7.916;2023-04-24T05:31:45;4.87;;;4.17;;
10154;SDS011;5118;48.570;7.916;2023-04-24T05:34:14;4.30;;;3.90;;
10154;SDS011;5118;48.570;7.916;2023-04-24T05:36:44;4.40;;;4.00;;
10154;SDS011;5118;48.570;7.916;2023-04-24T05:39:13;4.50;;;3.93;;
10154;SDS011;5118;48.570;7.916;2023-04-24T05:41:41;4.90;;;3.80;;
10154;SDS011;5118;48.570;7.916;2023-04-24T05:44:10;3.80;;;3.50;;
10154;SDS011;5118;48.570;7.916;2023-04-24T05:46:40;3.60;;;3.30;;
10154;SDS011;5118;48.570;7.916;2023-04-24T05:49:09;4.23;;;3.83;;
10154;SDS011;5118;48.570;7.916;2023-04-24T05:51:38;4.03;;;3.60;;
10154;SDS011;5118;48.570;7.916;2023-04-24T05:54:07;3.80;;;3.50;;
10154;SDS011;5118;48.570;7.916;2023-04-24T05:56:35;5.80;;;5.00;;
10154;SDS011;5118;48.570;7.916;2023-04-24T05:59:06;5.83;;;5.27;;
10154;SDS011;5118;48.570;7.916;2023-04-24T06:01:36;5.87;;;5.37;;
10154;SDS011;5118;48.570;7.916;2023-04-24T06:04:14;5.67;;;5.13;;
10154;SDS011;5118;48.570;7.916;2023-04-24T06:06:45;5.97;;;5.40;;
10154;SDS011;5118;48.570;7.916;2023-04-24T06:09:17;5.40;;;4.90;;
10154;SDS011;5118;48.570;7.916;2023-04-24T06:11:46;5.13;;;4.73;;
10154;SDS011;5118;48.570;7.916;2023-04-24T06:14:14;5.60;;;5.10;;
10154;SDS011;5118;48.570;7.916;2023-04-24T06:17:12;5.20;;;4.70;;
10154;SDS011;5118;48.570;7.916;2023-04-24T06:19:42;5.47;;;4.97;;
10154;SDS011;5118;48.570;7.916;2023-04-24T06:22:11;6.73;;;5.30;;
10154;SDS011;5118;48.570;7.916;2023-04-24T06:24:40;6.37;;;5.77;;
10154;SDS011;5118;48.570;7.916;2023-04-24T06:27:09;5.60;;;5.10;;
10154;SDS011;5118;48.570;7.916;2023-04-24T06:29:40;7.87;;;6.40;;
10154;SDS011;5118;48.570;7.916;2023-04-24T06:32:08;5.53;;;5.03;;
10154;SDS011;5118;48.570;7.916;2023-04-24T06:34:37;5.70;;;5.20;;
10154;SDS011;5118;48.570;7.916;2023-04-24T06:37:07;6.37;;;5.77;;
10154;SDS011;5118;48.570;7.916;2023-04-24T06:39:35;5.30;;;4.73;;
10154;SDS011;5118;48.570;7.916;2023-04-24T06:42:03;42.27;;;9.27;;
10154;SDS011;5118;48.570;7.916;2023-04-24T06:44:33;36.93;;;7.47;;
10154;SDS011;5118;48.570;7.916;2023-04-24T06:47:07;18.03;;;5.10;;
10154;SDS011;5118;48.570;7.916;2023-04-24T06:49:36;16.10;;;4.80;;
10154;SDS011;5118;48.570;7.916;2023-04-24T06:52:06;5.47;;;3.43;;
10154;SDS011;5118;48.570;7.916;2023-04-24T06:54:35;21.90;;;4.93;;
10154;SDS011;5118;48.570;7.916;2023-04-24T06:57:04;22.77;;;5.47;;
10154;SDS011;5118;48.570;7.916;2023-04-24T06:59:33;28.53;;;6.17;;
10154;SDS011;5118;48.570;7.916;2023-04-24T07:02:01;13.30;;;3.80;;
10154;SDS011;5118;48.570;7.916;2023-04-24T07:04:30;14.67;;;5.13;;
10154;SDS011;5118;48.570;7.916;2023-04-24T07:06:59;23.50;;;5.67;;
10154;SDS011;5118;48.570;7.916;2023-04-24T07:09:29;14.83;;;4.00;;
10154;SDS011;5118;48.570;7.916;2023-04-24T07:11:58;16.90;;;5.73;;
10154;SDS011;5118;48.570;7.916;2023-04-24T07:14:27;16.53;;;5.07;;
10154;SDS011;5118;48.570;7.916;2023-04-24T07:16:56;18.53;;;3.97;;
10154;SDS011;5118;48.570;7.916;2023-04-24T07:19:25;19.43;;;5.23;;
10154;SDS011;5118;48.570;7.916;2023-04-24T07:21:55;14.27;;;4.00;;
10154;SDS011;5118;48.570;7.916;2023-04-24T07:24:25;8.80;;;3.23;;
10154;SDS011;5118;48.570;7.916;2023-04-24T07:26:57;9.87;;;3.93;;
10154;SDS011;5118;48.570;7.916;2023-04-24T07:29:27;6.10;;;3.33;;
10154;SDS011;5118;48.570;7.916;2023-04-24T07:31:56;12.57;;;3.77;;
10154;SDS011;5118;48.570;7.916;2023-04-24T07:34:24;4.20;;;2.70;;
10154;SDS011;5118;48.570;7.916;2023-04-24T07:36:52;7.77;;;2.83;;
10154;SDS011;5118;48.570;7.916;2023-04-24T07:39:21;8.23;;;2.90;;
10154;SDS011;5118;48.570;7.916;2023-04-24T07:41:49;14.93;;;3.87;;
10154;SDS011;5118;48.570;7.916;2023-04-24T07:44:19;5.07;;;2.57;;
10154;SDS011;5118;48.570;7.916;2023-04-24T07:46:48;2.70;;;2.50;;
10154;SDS011;5118;48.570;7.916;2023-04-24T07:49:16;3.20;;;2.57;;
10154;SDS011;5118;48.570;7.916;2023-04-24T07:51:45;3.80;;;2.27;;
10154;SDS011;5118;48.570;7.916;2023-04-24T07:54:16;3.50;;;2.00;;
10154;SDS011;5118;48.570;7.916;2023-04-24T07:56:45;11.67;;;3.10;;
10154;SDS011;5118;48.570;7.916;2023-04-24T07:59:13;11.60;;;3.73;;
10154;SDS011;5118;48.570;7.916;2023-04-24T08:01:43;10.27;;;4.00;;
10154;SDS011;5118;48.570;7.916;2023-04-24T08:04:12;13.53;;;2.97;;
10154;SDS011;5118;48.570;7.916;2023-04-24T08:06:40;23.17;;;4.57;;
10154;SDS011;5118;48.570;7.916;2023-04-24T08:09:09;7.70;;;2.50;;
10154;SDS011;5118;48.570;7.916;2023-04-24T08:11:37;16.17;;;3.53;;
10154;SDS011;5118;48.570;7.916;2023-04-24T08:14:05;25.93;;;4.63;;
10154;SDS011;5118;48.570;7.916;2023-04-24T08:16:34;7.53;;;3.33;;
10154;SDS011;5118;48.570;7.916;2023-04-24T08:19:04;18.47;;;4.07;;
10154;SDS011;5118;48.570;7.916;2023-04-24T08:21:33;5.33;;;2.50;;
10154;SDS011;5118;48.570;7.916;2023-04-24T08:24:01;12.00;;;3.57;;
10154;SDS011;5118;48.570;7.916;2023-04-24T08:26:31;21.83;;;4.47;;
10154;SDS011;5118;48.570;7.916;2023-04-24T08:29:00;27.47;;;5.03;;
10154;SDS011;5118;48.570;7.916;2023-04-24T08:31:28;11.17;;;3.57;;
10154;SDS011;5118;48.570;7.916;2023-04-24T08:33:57;15.67;;;3.53;;
10154;SDS011;5118;48.570;7.916;2023-04-24T08:36:27;9.33;;;3.10;;
10154;SDS011;5118;48.570;7.916;2023-04-24T08:39:12;7.13;;;2.27;;
10154;SDS011;5118;48.570;7.916;2023-04-24T08:41:41;13.10;;;2.93;;
10154;SDS011;5118;48.570;7.916;2023-04-24T08:44:12;17.17;;;3.83;;
10154;SDS011;5118;48.570;7.916;2023-04-24T08:46:42;5.40;;;2.30;;
10154;SDS011;5118;48.570;7.916;2023-04-24T08:49:12;5.53;;;2.50;;
10154;SDS011;5118;48.570;7.916;2023-04-24T08:51:44;4.40;;;2.47;;
10154;SDS011;5118;48.570;7.916;2023-04-24T08:54:13;19.30;;;3.93;;
10154;SDS011;5118;48.570;7.916;2023-04-24T08:56:42;24.37;;;6.07;;
10154;SDS011;5118;48.570;7.916;2023-04-24T08:59:12;12.53;;;3.13;;
10154;SDS011;5118;48.570;7.916;2023-04-24T09:01:41;5.80;;;2.13;;
10154;SDS011;5118;48.570;7.916;2023-04-24T09:04:12;17.20;;;3.83;;
10154;SDS011;5118;48.570;7.916;2023-04-24T09:06:50;8.33;;;3.60;;
10154;SDS011;5118;48.570;7.916;2023-04-24T09:09:19;26.90;;;6.53;;
10154;SDS011;5118;48.570;7.916;2023-04-24T09:11:48;9.57;;;2.50;;
10154;SDS011;5118;48.570;7.916;2023-04-24T09:14:17;14.43;;;7.53;;
10154;SDS011;5118;48.570;7.916;2023-04-24T09:16:48;8.13;;;3.70;;
10154;SDS011;5118;48.570;7.916;2023-04-24T09:19:17;7.70;;;3.83;;
10154;SDS011;5118;48.570;7.916;2023-04-24T09:21:45;5.40;;;3.30;;
10154;SDS011;5118;48.570;7.916;2023-04-24T09:24:16;2.37;;;2.17;;
10154;SDS011;5118;48.570;7.916;2023-04-24T09:26:47;2.77;;;2.53;;
10154;SDS011;5118;48.570;7.916;2023-04-24T09:29:16;2.63;;;2.37;;
10154;SDS011;5118;48.570;7.916;2023-04-24T09:31:46;2.57;;;2.30;;
10154;SDS011;5118;48.570;7.916;2023-04-24T09:34:14;4.47;;;2.90;;
10154;SDS011;5118;48.570;7.916;2023-04-24T09:36:48;2.53;;;2.33;;
10154;SDS011;5118;48.570;7.916;2023-04-24T09:39:18;2.47;;;2.10;;
10154;SDS011;5118;48.570;7.916;2023-04-24T09:41:47;2.50;;;1.90;;
10154;SDS011;5118;48.570;7.916;2023-04-24T09:44:17;2.40;;;1.87;;
10154;SDS011;5118;48.570;7.916;2023-04-24T09:46:49;2.23;;;1.63;;
10154;SDS011;5118;48.570;7.916;2023-04-24T09:49:21;1.67;;;1.57;;
10154;SDS011;5118;48.570;7.916;2023-04-24T09:51:50;2.37;;;1.60;;
10154;SDS011;5118;48.570;7.916;2023-04-24T09:54:21;1.90;;;1.50;;
10154;SDS011;5118;48.570;7.916;2023-04-24T09:56:50;2.03;;;1.80;;
10154;SDS011;5118;48.570;7.916;2023-04-24T09:59:19;1.90;;;1.50;;
10154;SDS011;5118;48.570;7.916;2023-04-24T10:01:47;2.07;;;1.80;;
10154;SDS011;5118;48.570;7.916;2023-04-24T10:04:17;1.90;;;1.70;;
10154;SDS011;5118;48.570;7.916;2023-04-24T10:06:47;2.00;;;1.40;;
10154;SDS011;5118;48.570;7.916;2023-04-24T10:09:17;2.30;;;1.50;;
10154;SDS011;5118;48.570;7.916;2023-04-24T10:11:48;1.50;;;1.40;;
10154;SDS011;5118;48.570;7.916;2023-04-24T10:14:18;2.60;;;1.70;;
10154;SDS011;5118;48.570;7.916;2023-04-24T10:16:48;1.90;;;1.70;;
10154;SDS011;5118;48.570;7.916;2023-04-24T10:19:17;1.50;;;1.40;;
10154;SDS011;5118;48.570;7.916;2023-04-24T10:21:46;2.13;;;1.60;;
10154;SDS011;5118;48.570;7.916;2023-04-24T10:24:15;2.13;;;1.80;;
10154;SDS011;5118;48.570;7.916;2023-04-24T10:26:45;1.90;;;1.70;;
10154;SDS011;5118;48.570;7.916;2023-04-24T10:29:16;1.93;;;1.70;;
10154;SDS011;5118;48.570;7.916;2023-04-24T10:31:48;2.23;;;1.57;;
10154;SDS011;5118;48.570;7.916;2023-04-24T10:34:16;3.27;;;1.90;;
10154;SDS011;5118;48.570;7.916;2023-04-24T10:36:48;6.37;;;4.80;;
10154;SDS011;5118;48.570;7.916;2023-04-24T10:39:20;2.73;;;2.53;;
10154;SDS011;5118;48.570;7.916;2023-04-24T10:41:53;2.77;;;2.30;;
10154;SDS011;5118;48.570;7.916;2023-04-24T10:44:25;1.90;;;1.77;;
10154;SDS011;5118;48.570;7.916;2023-04-24T10:47:04;3.93;;;2.30;;
10154;SDS011;5118;48.570;7.916;2023-04-24T10:49:32;2.30;;;2.10;;
10154;SDS011;5118;48.570;7.916;2023-04-24T10:52:01;5.53;;;2.47;;
10154;SDS011;5118;48.570;7.916;2023-04-24T10:54:34;3.10;;;2.80;;
10154;SDS011;5118;48.570;7.916;2023-04-24T11:00:12;1.93;;;1.73;;
10154;SDS011;5118;48.570;7.916;2023-04-24T11:02:45;4.03;;;3.40;;
10154;SDS011;5118;48.570;7.916;2023-04-24T11:05:17;2.93;;;2.73;;
10154;SDS011;5118;48.570;7.916;2023-04-24T11:10:43;7.93;;;4.53;;
10154;SDS011;5118;48.570;7.916;2023-04-24T11:13:14;2.97;;;2.50;;
10154;SDS011;5118;48.570;7.916;2023-04-24T11:15:44;1.80;;;1.70;;
10154;SDS011;5118;48.570;7.916;2023-04-24T11:18:39;3.13;;;2.40;;
10154;SDS011;5118;48.570;7.916;2023-04-24T11:21:12;7.00;;;6.30;;
10154;SDS011;5118;48.570;7.916;2023-04-24T11:23:40;3.40;;;3.10;;
10154;SDS011;5118;48.570;7.916;2023-04-24T11:26:09;3.23;;;2.77;;
10154;SDS011;5118;48.570;7.916;2023-04-24T11:28:43;2.97;;;1.90;;
10154;SDS011;5118;48.570;7.916;2023-04-24T11:31:35;2.13;;;1.90;;
10154;SDS011;5118;48.570;7.916;2023-04-24T11:34:13;2.10;;;1.90;;
10154;SDS011;5118;48.570;7.916;2023-04-24T11:36:42;2.23;;;2.00;;
10154;SDS011;5118;48.570;7.916;2023-04-24T11:39:11;2.33;;;2.10;;
10154;SDS011;5118;48.570;7.916;2023-04-24T11:41:40;3.33;;;2.20;;
10154;SDS011;5118;48.570;7.916;2023-04-24T11:44:08;2.43;;;2.20;;
10154;SDS011;5118;48.570;7.916;2023-04-24T11:46:39;2.80;;;2.40;;
10154;SDS011;5118;48.570;7.916;2023-04-24T11:49:07;2.40;;;2.20;;
10154;SDS011;5118;48.570;7.916;2023-04-24T11:51:36;3.70;;;2.63;;
10154;SDS011;5118;48.570;7.916;2023-04-24T11:54:19;3.20;;;2.47;;
10154;SDS011;5118;48.570;7.916;2023-04-24T11:56:48;2.90;;;2.57;;
10154;SDS011;5118;48.570;7.916;2023-04-24T11:59:17;4.00;;;2.37;;
10154;SDS011;5118;48.570;7.916;2023-04-24T12:01:47;3.50;;;2.50;;
10154;SDS011;5118;48.570;7.916;2023-04-24T12:04:17;2.30;;;2.10;;
10154;SDS011;5118;48.570;7.916;2023-04-24T12:07:01;3.63;;;2.27;;
10154;SDS011;5118;48.570;7.916;2023-04-24T12:09:40;3.80;;;3.20;;
10154;SDS011;5118;48.570;7.916;2023-04-24T12:12:10;3.43;;;2.70;;
10154;SDS011;5118;48.570;7.916;2023-04-24T12:14:42;5.27;;;2.83;;
10154;SDS011;5118;48.570;7.916;2023-04-24T12:17:12;3.33;;;2.30;;
10154;SDS011;5118;48.570;7.916;2023-04-24T12:19:47;4.90;;;3.10;;
10154;SDS011;5118;48.570;7.916;2023-04-24T12:22:17;2.60;;;2.40;;
10154;SDS011;5118;48.570;7.916;2023-04-24T12:24:58;3.13;;;2.80;;
10154;SDS011;5118;48.570;7.916;2023-04-24T12:27:29;3.27;;;2.90;;
10154;SDS011;5118;48.570;7.916;2023-04-24T12:29:59;4.03;;;2.63;;
10154;SDS011;5118;48.570;7.916;2023-04-24T12:32:31;7.33;;;4.97;;
10154;SDS011;5118;48.570;7.916;2023-04-24T12:34:59;3.43;;;2.60;;
10154;SDS011;5118;48.570;7.916;2023-04-24T12:37:32;4.10;;;2.10;;
10154;SDS011;5118;48.570;7.916;2023-04-24T12:40:04;3.63;;;2.27;;
10154;SDS011;5118;48.570;7.916;2023-04-24T12:42:34;2.40;;;2.20;;
10154;SDS011;5118;48.570;7.916;2023-04-24T12:45:04;2.97;;;2.30;;
10154;SDS011;5118;48.570;7.916;2023-04-24T12:47:36;2.67;;;2.20;;
10154;SDS011;5118;48.570;7.916;2023-04-24T12:50:04;5.73;;;2.80;;
10154;SDS011;5118;48.570;7.916;2023-04-24T12:52:33;3.50;;;3.20;;
10154;SDS011;5118;48.570;7.916;2023-04-24T12:55:02;3.07;;;2.37;;
10154;SDS011;5118;48.570;7.916;2023-04-24T12:57:31;2.57;;;2.30;;
10154;SDS011;5118;48.570;7.916;2023-04-24T12:59:59;3.20;;;2.40;;
10154;SDS011;5118;48.570;7.916;2023-04-24T13:02:28;3.80;;;2.60;;
10154;SDS011;5118;48.570;7.916;2023-04-24T13:04:59;3.30;;;2.30;;
10154;SDS011;5118;48.570;7.916;2023-04-24T13:07:31;2.57;;;2.20;;
10154;SDS011;5118;48.570;7.916;2023-04-24T13:09:59;2.40;;;2.20;;
10154;SDS011;5118;48.570;7.916;2023-04-24T13:12:27;2.47;;;2.20;;
10154;SDS011;5118;48.570;7.916;2023-04-24T13:14:57;4.33;;;2.40;;
10154;SDS011;5118;48.570;7.916;2023-04-24T13:17:26;2.80;;;2.50;;
10154;SDS011;5118;48.570;7.916;2023-04-24T13:19:55;2.70;;;2.17;;
10154;SDS011;5118;48.570;7.916;2023-04-24T13:22:25;3.00;;;2.70;;
10154;SDS011;5118;48.570;7.916;2023-04-24T13:24:53;3.80;;;2.73;;
10154;SDS011;5118;48.570;7.916;2023-04-24T13:27:22;2.90;;;2.50;;
10154;SDS011;5118;48.570;7.916;2023-04-24T13:29:51;7.07;;;2.67;;
10154;SDS011;5118;48.570;7.916;2023-04-24T13:32:22;4.57;;;3.00;;
10154;SDS011;5118;48.570;7.916;2023-04-24T13:34:51;3.07;;;2.50;;
10154;SDS011;5118;48.570;7.916;2023-04-24T13:37:20;3.23;;;2.40;;
10154;SDS011;5118;48.570;7.916;2023-04-24T13:39:50;4.07;;;2.43;;
10154;SDS011;5118;48.570;7.916;2023-04-24T13:42:21;6.60;;;2.70;;
10154;SDS011;5118;48.570;7.916;2023-04-24T13:44:50;3.27;;;2.33;;
10154;SDS011;5118;48.570;7.916;2023-04-24T13:47:20;3.33;;;2.57;;
10154;SDS011;5118;48.570;7.916;2023-04-24T13:49:49;4.07;;;2.17;;
10154;SDS011;5118;48.570;7.916;2023-04-24T13:52:17;2.53;;;2.33;;
10154;SDS011;5118;48.570;7.916;2023-04-24T13:54:46;4.50;;;2.53;;
10154;SDS011;5118;48.570;7.916;2023-04-24T13:57:16;2.40;;;2.20;;
10154;SDS011;5118;48.570;7.916;2023-04-24T13:59:44;3.40;;;2.60;;
10154;SDS011;5118;48.570;7.916;2023-04-24T14:02:13;4.40;;;2.37;;
10154;SDS011;5118;48.570;7.916;2023-04-24T14:04:41;2.80;;;2.30;;
10154;SDS011;5118;48.570;7.916;2023-04-24T14:07:10;2.60;;;2.33;;
10154;SDS011;5118;48.570;7.916;2023-04-24T14:09:39;3.77;;;2.50;;
10154;SDS011;5118;48.570;7.916;2023-04-24T14:12:07;5.63;;;2.70;;
10154;SDS011;5118;48.570;7.916;2023-04-24T14:14:37;2.50;;;1.98;;
10154;SDS011;5118;48.570;7.916;2023-04-24T14:17:05;5.27;;;2.30;;
10154;SDS011;5118;48.570;7.916;2023-04-24T14:19:33;2.65;;;2.00;;
10154;SDS011;5118;48.570;7.916;2023-04-24T14:22:02;2.20;;;2.00;;
10154;SDS011;5118;48.570;7.916;2023-04-24T14:24:30;2.35;;;2.15;;
10154;SDS011;5118;48.570;7.916;2023-04-24T14:26:58;3.15;;;2.38;;
10154;SDS011;5118;48.570;7.916;2023-04-24T14:29:27;2.92;;;2.15;;
10154;SDS011;5118;48.570;7.916;2023-04-24T14:31:57;2.30;;;1.70;;
10154;SDS011;5118;48.570;7.916;2023-04-24T14:34:26;2.78;;;2.58;;
10154;SDS011;5118;48.570;7.916;2023-04-24T14:36:55;2.40;;;1.90;;
10154;SDS011;5118;48.570;7.916;2023-04-24T14:39:24;1.52;;;1.42;;
10154;SDS011;5118;48.570;7.916;2023-04-24T14:41:52;3.75;;;2.30;;
10154;SDS011;5118;48.570;7.916;2023-04-24T14:44:20;3.45;;;2.38;;
10154;SDS011;5118;48.570;7.916;2023-04-24T14:46:49;2.50;;;2.30;;
10154;SDS011;5118;48.570;7.916;2023-04-24T14:49:19;3.57;;;2.90;;
10154;SDS011;5118;48.570;7.916;2023-04-24T14:51:48;2.90;;;1.93;;
10154;SDS011;5118;48.570;7.916;2023-04-24T14:54:16;2.67;;;2.13;;
10154;SDS011;5118;48.570;7.916;2023-04-24T14:56:44;1.90;;;1.80;;
10154;SDS011;5118;48.570;7.916;2023-04-24T14:59:13;1.97;;;1.40;;
10154;SDS011;5118;48.570;7.916;2023-04-24T15:01:41;2.20;;;2.00;;
10154;SDS011;5118;48.570;7.916;2023-04-24T15:04:10;2.40;;;2.20;;
10154;SDS011;5118;48.570;7.916;2023-04-24T15:06:40;3.90;;;2.23;;
10154;SDS011;5118;48.570;7.916;2023-04-24T15:09:08;2.90;;;2.60;;
10154;SDS011;5118;48.570;7.916;2023-04-24T15:11:37;2.50;;;2.30;;
10154;SDS011;5118;48.570;7.916;2023-04-24T15:14:05;3.10;;;2.80;;
10154;SDS011;5118;48.570;7.916;2023-04-24T15:16:35;2.83;;;2.30;;
10154;SDS011;5118;48.570;7.916;2023-04-24T15:19:04;3.03;;;2.50;;
10154;SDS011;5118;48.570;7.916;2023-04-24T15:21:32;2.27;;;2.07;;
10154;SDS011;5118;48.570;7.916;2023-04-24T15:24:02;3.40;;;2.00;;
10154;SDS011;5118;48.570;7.916;2023-04-24T15:26:31;2.47;;;2.28;;